Time;durP1;ratioP1;P1;durP2;ratioP2;P2;SDS_P1;SDS_P2;PMS_P1;PMS_P2;Temp;Humidity;BMP_temperature;BMP_pressure;BME280_temperature;BME280_humidity;BME280_pressure;Samples;Min_cycle;Max_cycle;Signal;HPM_P1;HPM_P2
2021/05/24 00:01:57;;;;;;;;;;;7.50;99.90;;;;;;10384899;28;20385;-66
2021/05/24 00:06:59;;;;;;;;;;;7.50;99.90;;;;;;10380316;28;20373;-66
2021/05/24 00:12:02;;;;;;;;;;;7.50;99.90;;;;;;10378182;22;20012;-81
2021/05/24 00:17:05;;;;;;;;;;;7.10;99.90;;;;;;10354330;28;19925;-81
2021/05/24 00:22:07;;;;;;;;;;;7.00;99.90;;;;;;10373561;28;19965;-81
2021/05/24 00:27:09;;;;;;;;;;;7.00;99.90;;;;;;10372268;28;20492;-81
2021/05/24 00:32:11;;;;;;;;;;;7.00;99.90;;;;;;10372877;28;19925;-80
2021/05/24 00:37:12;;;;;;;;;;;7.10;99.90;;;;;;10372126;28;19930;-80
2021/05/24 00:42:14;;;;;;;;;;;7.00;99.90;;;;;;10371151;28;19925;-81
2021/05/24 00:47:16;;;;;;;;;;;7.00;99.90;;;;;;10372659;28;20363;-80
2021/05/24 00:52:18;;;;;;;;;;;7.00;99.90;;;;;;10372795;28;19929;-81
2021/05/24 00:57:20;;;;;;;;;;;6.80;99.90;;;;;;10371374;28;20330;-81
2021/05/24 01:02:22;;;;;;;;;;;6.80;99.90;;;;;;10379020;28;20633;-81
2021/05/24 01:07:24;;;;;;;;;;;6.80;99.90;;;;;;10371344;28;20411;-81
2021/05/24 01:12:26;;;;;;;;;;;6.90;99.90;;;;;;10370754;28;19926;-82
2021/05/24 01:17:28;;;;;;;;;;;6.90;99.90;;;;;;10370005;28;19933;-80
2021/05/24 01:22:33;;;;;;;;;;;6.80;99.90;;;;;;10370925;28;19925;-80
2021/05/24 01:27:35;;;;;;;;;;;6.80;99.90;;;;;;10368669;28;20306;-81
2021/05/24 01:32:36;;;;;;;;;;;6.70;99.90;;;;;;10369244;28;19965;-81
2021/05/24 01:37:38;;;;;;;;;;;6.50;99.90;;;;;;10369596;28;19929;-80
2021/05/24 01:42:40;;;;;;;;;;;6.40;99.90;;;;;;10369307;28;19933;-80
2021/05/24 01:47:43;;;;;;;;;;;6.30;99.90;;;;;;10380852;28;19925;-80
2021/05/24 01:52:45;;;;;;;;;;;6.20;99.90;;;;;;10369601;28;20395;-81
2021/05/24 01:57:47;;;;;;;;;;;6.20;99.90;;;;;;10334963;28;19969;-81
2021/05/24 02:02:49;;;;;;;;;;;6.20;99.90;;;;;;10366121;28;19976;-80
2021/05/24 02:07:51;;;;;;;;;;;6.10;99.90;;;;;;10343610;28;19926;-81
2021/05/24 02:12:53;;;;;;;;;;;6.20;99.90;;;;;;10367670;28;19925;-80
2021/05/24 02:17:55;;;;;;;;;;;6.30;99.90;;;;;;10371034;28;19926;-81
2021/05/24 02:22:58;;;;;;;;;;;6.20;99.90;;;;;;10373969;28;20023;-81
2021/05/24 02:28:00;;;;;;;;;;;6.20;99.90;;;;;;10337695;28;19980;-81
2021/05/24 02:33:03;;;;;;;;;;;6.00;99.90;;;;;;10372459;28;19926;-81
2021/05/24 02:38:05;;;;;;;;;;;5.90;99.90;;;;;;10340458;28;19981;-80
2021/05/24 02:43:07;;;;;;;;;;;5.90;99.90;;;;;;10348332;28;20419;-81
2021/05/24 02:48:09;;;;;;;;;;;6.00;99.90;;;;;;10348631;28;19930;-81
2021/05/24 02:53:11;;;;;;;;;;;5.90;99.90;;;;;;10373273;28;20326;-81
2021/05/24 02:58:13;;;;;;;;;;;5.80;99.90;;;;;;10369046;28;19948;-80
2021/05/24 03:03:15;;;;;;;;;;;5.70;99.90;;;;;;10340692;28;19929;-81
2021/05/24 03:08:17;;;;;;;;;;;5.70;99.90;;;;;;10328599;28;19949;-81
2021/05/24 03:13:19;;;;;;;;;;;5.60;99.90;;;;;;10364444;28;19971;-81
2021/05/24 03:18:20;;;;;;;;;;;5.40;99.90;;;;;;10363630;28;19933;-81
2021/05/24 03:23:23;;;;;;;;;;;5.50;99.90;;;;;;10325989;28;20493;-81
2021/05/24 03:28:24;;;;;;;;;;;5.80;99.90;;;;;;10365873;28;19930;-80
2021/05/24 03:33:26;;;;;;;;;;;6.00;99.90;;;;;;10369062;28;19926;-81
2021/05/24 03:38:28;;;;;;;;;;;6.30;99.90;;;;;;10327178;28;19930;-81
2021/05/24 03:43:30;;;;;;;;;;;6.40;99.90;;;;;;10326513;28;19976;-81
2021/05/24 03:48:32;;;;;;;;;;;6.20;99.90;;;;;;10365340;28;19948;-81
2021/05/24 03:53:34;;;;;;;;;;;6.20;99.90;;;;;;10332909;28;20315;-80
2021/05/24 03:58:36;;;;;;;;;;;6.20;99.90;;;;;;10334041;28;20414;-80
2021/05/24 04:03:38;;;;;;;;;;;6.20;99.90;;;;;;10356173;28;19976;-80
2021/05/24 04:08:42;;;;;;;;;;;6.20;99.90;;;;;;10349532;28;20042;-81
2021/05/24 04:13:51;;;;;;;;;;;6.20;99.90;;;;;;10350288;28;19980;-81
2021/05/24 04:18:53;;;;;;;;;;;6.30;99.90;;;;;;10358063;28;19925;-81
2021/05/24 04:23:54;;;;;;;;;;;6.40;99.90;;;;;;10373837;28;19975;-81
2021/05/24 04:28:56;;;;;;;;;;;7.30;99.90;;;;;;10373286;28;19960;-81
2021/05/24 04:33:58;;;;;;;;;;;11.40;99.90;;;;;;10372226;28;20334;-81
2021/05/24 04:39:00;;;;;;;;;;;15.20;99.90;;;;;;10364988;28;19973;-79
2021/05/24 04:44:18;;;;;;;;;;;17.70;80.20;;;;;;10354264;28;19972;-81
2021/05/24 04:49:20;;;;;;;;;;;20.00;62.50;;;;;;10364791;28;19930;-81
2021/05/24 04:54:22;;;;;;;;;;;21.20;54.00;;;;;;10364791;28;19965;-79
2021/05/24 04:59:23;;;;;;;;;;;22.20;52.30;;;;;;10348953;28;20248;-79
2021/05/24 05:04:25;;;;;;;;;;;22.90;49.20;;;;;;10366257;28;19964;-79
2021/05/24 05:09:27;;;;;;;;;;;23.90;46.00;;;;;;10352592;28;20379;-79
2021/05/24 05:14:29;;;;;;;;;;;23.50;45.70;;;;;;10331508;28;19973;-79
2021/05/24 05:19:31;;;;;;;;;;;23.70;45.20;;;;;;10357299;28;20367;-79
2021/05/24 05:24:33;;;;;;;;;;;24.00;44.10;;;;;;10337466;28;19996;-79
2021/05/24 05:29:34;;;;;;;;;;;23.60;43.40;;;;;;10358583;28;19926;-79
2021/05/24 05:34:36;;;;;;;;;;;19.20;48.40;;;;;;10342343;28;19979;-79
2021/05/24 05:39:38;;;;;;;;;;;15.70;55.10;;;;;;10356812;28;20358;-80
2021/05/24 05:44:40;;;;;;;;;;;13.70;61.10;;;;;;10331421;28;19984;-79
2021/05/24 05:49:47;;;;;;;;;;;12.70;68.00;;;;;;10357832;28;19980;-81
2021/05/24 05:54:49;;;;;;;;;;;12.10;80.00;;;;;;10341152;28;19965;-81
2021/05/24 05:59:52;;;;;;;;;;;11.60;94.20;;;;;;10368354;28;19932;-81
2021/05/24 06:04:54;;;;;;;;;;;11.50;99.90;;;;;;10360486;28;19926;-81
2021/05/24 06:09:55;;;;;;;;;;;11.40;99.90;;;;;;10342079;28;19976;-81
2021/05/24 06:14:57;;;;;;;;;;;11.30;99.90;;;;;;10333787;28;20367;-80
2021/05/24 06:19:59;;;;;;;;;;;11.30;99.90;;;;;;10356011;28;19960;-81
2021/05/24 06:25:01;;;;;;;;;;;11.40;99.90;;;;;;10352346;28;19979;-81
2021/05/24 06:30:04;;;;;;;;;;;11.50;99.90;;;;;;10367334;28;20263;-81
2021/05/24 06:35:07;;;;;;;;;;;11.60;99.90;;;;;;10367298;28;19988;-80
2021/05/24 06:40:09;;;;;;;;;;;11.90;99.90;;;;;;10359593;28;19979;-82
2021/05/24 06:45:11;;;;;;;;;;;12.00;99.90;;;;;;10344795;28;20020;-80
2021/05/24 06:50:14;;;;;;;;;;;12.40;99.90;;;;;;10336207;28;19979;-80
2021/05/24 06:55:16;;;;;;;;;;;12.60;99.90;;;;;;10343694;28;20570;-81
2021/05/24 07:00:18;;;;;;;;;;;12.90;99.90;;;;;;10362159;28;19979;-81
2021/05/24 07:05:20;;;;;;;;;;;13.30;99.90;;;;;;10379028;28;19952;-81
2021/05/24 07:10:22;;;;;;;;;;;13.60;99.90;;;;;;10362837;28;19960;-82
2021/05/24 07:15:24;;;;;;;;;;;14.00;99.90;;;;;;10364851;28;20032;-82
2021/05/24 07:20:26;;;;;;;;;;;14.40;99.90;;;;;;10354050;28;20052;-80
2021/05/24 07:25:27;;;;;;;;;;;14.60;99.90;;;;;;10348391;28;20385;-82
2021/05/24 07:30:29;;;;;;;;;;;15.20;99.90;;;;;;10325352;28;19984;-80
2021/05/24 07:35:31;;;;;;;;;;;16.00;97.50;;;;;;10353405;28;20004;-80
2021/05/24 07:40:33;;;;;;;;;;;17.30;93.20;;;;;;10363744;28;20671;-80
2021/05/24 07:45:35;;;;;;;;;;;18.20;79.70;;;;;;10364179;28;20016;-81
2021/05/24 07:50:38;;;;;;;;;;;18.10;70.20;;;;;;10353760;28;19984;-80
2021/05/24 07:55:40;;;;;;;;;;;18.40;66.40;;;;;;10364245;28;19940;-80
2021/05/24 08:00:42;;;;;;;;;;;18.90;60.30;;;;;;10363229;28;19926;-80
2021/05/24 08:05:46;;;;;;;;;;;18.70;55.70;;;;;;10354347;28;20337;-81
2021/05/24 08:10:48;;;;;;;;;;;18.80;57.30;;;;;;10362794;28;19964;-79
2021/05/24 08:15:50;;;;;;;;;;;18.70;55.40;;;;;;10363777;28;19929;-79
2021/05/24 08:20:54;;;;;;;;;;;19.00;55.00;;;;;;10357714;28;19981;-80
2021/05/24 08:25:56;;;;;;;;;;;19.50;53.30;;;;;;10350305;28;20291;-80
2021/05/24 08:30:59;;;;;;;;;;;19.80;51.30;;;;;;10363987;28;19976;-81
2021/05/24 08:36:02;;;;;;;;;;;19.70;51.10;;;;;;10366511;28;19929;-83
2021/05/24 08:41:08;;;;;;;;;;;19.90;50.50;;;;;;10373232;28;20009;-82
2021/05/24 08:46:11;;;;;;;;;;;19.90;49.40;;;;;;10382242;28;19929;-81
2021/05/24 08:57:18;;;;;;;;;;;21.00;48.60;;;;;;10369924;28;19913;-83
2021/05/24 09:02:20;;;;;;;;;;;21.00;47.00;;;;;;10357229;28;19926;-83
2021/05/24 09:07:22;;;;;;;;;;;21.10;47.60;;;;;;10331867;28;19930;-83
2021/05/24 09:12:30;;;;;;;;;;;21.40;46.70;;;;;;10333379;28;20459;-82
2021/05/24 09:17:42;;;;;;;;;;;21.60;46.20;;;;;;10372970;28;19980;-84
2021/05/24 09:22:44;;;;;;;;;;;21.40;45.20;;;;;;10366971;28;20288;-85
2021/05/24 09:27:46;;;;;;;;;;;21.20;45.90;;;;;;10339049;28;19972;-85
2021/05/24 09:32:48;;;;;;;;;;;21.00;45.80;;;;;;10363692;28;19926;-84
2021/05/24 09:37:50;;;;;;;;;;;20.90;45.30;;;;;;10333714;28;19984;-83
2021/05/24 09:42:52;;;;;;;;;;;21.20;45.60;;;;;;10362795;28;19926;-84
2021/05/24 09:47:56;;;;;;;;;;;21.30;44.70;;;;;;10369540;28;20325;-84
2021/05/24 09:52:58;;;;;;;;;;;21.50;44.40;;;;;;10371022;28;19925;-84
2021/05/24 09:58:01;;;;;;;;;;;21.60;43.60;;;;;;10371310;28;19956;-84
2021/05/24 10:03:05;;;;;;;;;;;21.60;43.80;;;;;;10370444;28;20383;-84
2021/05/24 10:08:07;;;;;;;;;;;21.50;43.60;;;;;;10370662;28;19956;-83
2021/05/24 10:13:09;;;;;;;;;;;21.20;43.50;;;;;;10369120;28;20012;-84
2021/05/24 10:18:12;;;;;;;;;;;20.90;43.30;;;;;;10384904;28;19983;-84
2021/05/24 10:23:15;;;;;;;;;;;20.70;43.30;;;;;;10369421;28;21436;-83
2021/05/24 10:28:18;;;;;;;;;;;20.70;43.40;;;;;;10371435;28;19929;-84
2021/05/24 10:33:37;;;;;;;;;;;20.60;43.80;;;;;;10369547;28;20286;-83
2021/05/24 10:38:39;;;;;;;;;;;20.50;44.00;;;;;;10370269;28;19960;-84
2021/05/24 10:43:45;;;;;;;;;;;20.60;44.10;;;;;;10369382;28;20441;-84
2021/05/24 10:48:53;;;;;;;;;;;20.60;43.90;;;;;;10367783;28;19929;-84
2021/05/24 10:54:03;;;;;;;;;;;20.40;43.90;;;;;;10370167;28;20096;-84
2021/05/24 10:59:05;;;;;;;;;;;20.30;44.20;;;;;;10367971;28;20429;-84
2021/05/24 11:04:11;;;;;;;;;;;20.20;44.80;;;;;;10368586;28;19984;-83
2021/05/24 11:09:13;;;;;;;;;;;20.30;45.00;;;;;;10368712;28;19956;-84
2021/05/24 11:14:14;;;;;;;;;;;19.90;46.00;;;;;;10368652;28;19925;-84
2021/05/24 11:19:17;;;;;;;;;;;19.90;46.50;;;;;;10375338;28;19980;-83
2021/05/24 11:29:43;;;;;;;;;;;21.00;46.70;;;;;;10367865;28;20391;-84
2021/05/24 11:34:45;;;;;;;;;;;21.00;45.10;;;;;;10368759;28;19961;-83
2021/05/24 11:39:52;;;;;;;;;;;20.60;45.80;;;;;;10364267;28;19942;-83
2021/05/24 11:44:58;;;;;;;;;;;20.50;44.70;;;;;;10367760;28;20012;-83
2021/05/24 11:50:08;;;;;;;;;;;20.10;45.80;;;;;;10368231;28;19929;-83
2021/05/24 11:55:11;;;;;;;;;;;19.40;47.40;;;;;;10367881;28;19926;-83
2021/05/24 12:00:15;;;;;;;;;;;20.00;47.00;;;;;;10367397;28;19925;-84
2021/05/24 12:05:18;;;;;;;;;;;20.60;45.80;;;;;;10367225;28;19926;-84
2021/05/24 12:10:23;;;;;;;;;;;20.70;45.20;;;;;;10367069;28;20310;-83
2021/05/24 12:15:26;;;;;;;;;;;20.40;46.00;;;;;;10373590;28;19926;-84
2021/05/24 12:20:28;;;;;;;;;;;19.80;47.10;;;;;;10375582;28;19980;-83
2021/05/24 12:25:29;;;;;;;;;;;19.00;47.80;;;;;;10374382;28;20048;-84
2021/05/24 12:30:43;;;;;;;;;;;18.60;48.70;;;;;;10374759;28;19934;-83
2021/05/24 12:35:48;;;;;;;;;;;19.10;48.10;;;;;;10373043;28;19926;-83
2021/05/24 12:40:52;;;;;;;;;;;19.20;48.50;;;;;;10373859;28;19925;-83
2021/05/24 12:45:53;;;;;;;;;;;18.90;49.20;;;;;;10374683;28;19961;-83
2021/05/24 12:50:56;;;;;;;;;;;18.30;50.40;;;;;;10373896;28;19979;-83
2021/05/24 12:56:07;;;;;;;;;;;17.90;51.00;;;;;;10373642;28;19929;-83
2021/05/24 13:01:09;;;;;;;;;;;17.80;51.30;;;;;;10373312;28;19926;-83
2021/05/24 13:06:12;;;;;;;;;;;17.70;51.90;;;;;;10373134;28;20355;-83
2021/05/24 13:11:15;;;;;;;;;;;17.40;53.50;;;;;;10372568;28;19980;-83
2021/05/24 13:16:52;;;;;;;;;;;17.20;55.20;;;;;;10372752;28;20382;-83
2021/05/24 13:27:54;;;;;;;;;;;17.00;58.10;;;;;;10352782;28;19959;-83
2021/05/24 13:32:57;;;;;;;;;;;16.70;60.30;;;;;;10371378;28;19926;-83
2021/05/24 13:38:08;;;;;;;;;;;16.40;64.20;;;;;;10371970;28;19926;-83
2021/05/24 13:43:28;;;;;;;;;;;16.00;65.70;;;;;;10371807;28;19929;-83
2021/05/24 13:48:30;;;;;;;;;;;15.80;66.80;;;;;;10372564;28;19926;-83
2021/05/24 13:53:32;;;;;;;;;;;16.00;68.00;;;;;;10372783;28;19929;-83
2021/05/24 13:58:34;;;;;;;;;;;16.20;66.60;;;;;;10379983;28;19929;-83
2021/05/24 14:03:36;;;;;;;;;;;16.10;66.40;;;;;;10370998;28;20291;-83
2021/05/24 14:08:38;;;;;;;;;;;16.00;67.20;;;;;;10370818;28;19979;-83
2021/05/24 14:13:41;;;;;;;;;;;15.80;69.10;;;;;;10370903;28;19964;-83
2021/05/24 14:18:45;;;;;;;;;;;16.00;70.00;;;;;;10370881;28;19972;-83
2021/05/24 14:23:47;;;;;;;;;;;16.20;69.90;;;;;;10385251;28;19991;-83
2021/05/24 14:28:49;;;;;;;;;;;16.20;70.10;;;;;;10386271;28;19972;-83
2021/05/24 14:33:51;;;;;;;;;;;16.20;70.40;;;;;;10371064;28;19930;-84
2021/05/24 14:38:53;;;;;;;;;;;16.40;72.90;;;;;;10369546;28;19925;-83
2021/05/24 14:43:55;;;;;;;;;;;16.90;74.00;;;;;;10369191;28;19969;-83
2021/05/24 14:48:58;;;;;;;;;;;16.80;78.70;;;;;;10395322;28;19929;-83
2021/05/24 14:54:01;;;;;;;;;;;16.50;81.20;;;;;;10370156;28;19933;-83
2021/05/24 14:59:03;;;;;;;;;;;16.00;86.90;;;;;;10369295;28;19925;-83
2021/05/24 15:04:05;;;;;;;;;;;15.70;91.60;;;;;;10368349;28;20378;-83
2021/05/24 15:09:07;;;;;;;;;;;15.20;95.70;;;;;;10369310;28;19936;-83
2021/05/24 15:14:09;;;;;;;;;;;14.90;99.90;;;;;;10367169;28;19980;-83
2021/05/24 15:19:28;;;;;;;;;;;14.70;99.90;;;;;;10371667;28;19949;-82
2021/05/24 15:24:30;;;;;;;;;;;14.60;99.90;;;;;;10368778;28;19948;-82
2021/05/24 15:29:32;;;;;;;;;;;14.50;99.90;;;;;;10366200;28;19926;-82
2021/05/24 15:34:39;;;;;;;;;;;14.20;99.90;;;;;;10369045;28;20016;-81
2021/05/24 15:39:41;;;;;;;;;;;13.90;99.90;;;;;;10367936;28;19929;-81
2021/05/24 15:44:44;;;;;;;;;;;13.90;99.90;;;;;;10367011;28;19976;-81
2021/05/24 15:49:46;;;;;;;;;;;14.20;99.90;;;;;;10372274;28;19926;-81
2021/05/24 15:54:47;;;;;;;;;;;14.00;99.90;;;;;;10373423;28;19973;-81
2021/05/24 15:59:49;;;;;;;;;;;13.80;99.90;;;;;;10373908;28;20010;-81
2021/05/24 16:04:51;;;;;;;;;;;13.70;99.90;;;;;;10386484;28;19934;-81
2021/05/24 16:09:53;;;;;;;;;;;13.60;99.90;;;;;;10372902;28;19925;-81
2021/05/24 16:14:55;;;;;;;;;;;13.70;99.90;;;;;;10374121;28;19980;-81
2021/05/24 16:19:57;;;;;;;;;;;13.80;99.90;;;;;;10388426;28;19929;-81
2021/05/24 16:25:25;;;;;;;;;;;13.90;99.90;;;;;;10373439;28;19956;-81
2021/05/24 16:30:21;;;;;;;;;;;14.00;99.90;;;;;;10373400;28;20386;-81
2021/05/24 16:35:23;;;;;;;;;;;13.90;99.90;;;;;;10374118;28;19989;-82
2021/05/24 16:40:26;;;;;;;;;;;13.80;99.90;;;;;;10372591;28;19972;-81
2021/05/24 16:45:28;;;;;;;;;;;13.90;99.90;;;;;;10373767;28;19979;-82
2021/05/24 16:50:30;;;;;;;;;;;14.10;99.90;;;;;;10372065;28;20276;-83
2021/05/24 16:55:32;;;;;;;;;;;13.90;99.90;;;;;;10372161;28;19964;-82
2021/05/24 17:00:37;;;;;;;;;;;13.70;99.90;;;;;;10384504;28;20445;-82
2021/05/24 17:05:39;;;;;;;;;;;13.70;99.90;;;;;;10372280;28;19926;-82
2021/05/24 17:10:42;;;;;;;;;;;13.80;99.90;;;;;;10371506;28;20303;-82
2021/05/24 17:15:43;;;;;;;;;;;13.80;99.90;;;;;;10372418;28;19941;-82
2021/05/24 17:20:45;;;;;;;;;;;13.90;99.90;;;;;;10371808;28;20403;-83
2021/05/24 17:25:47;;;;;;;;;;;14.20;99.90;;;;;;10372329;28;19933;-83
2021/05/24 17:30:49;;;;;;;;;;;14.20;99.90;;;;;;10372351;28;19929;-82
2021/05/24 17:35:51;;;;;;;;;;;14.60;99.90;;;;;;10371737;28;19925;-83
2021/05/24 17:40:54;;;;;;;;;;;14.70;99.90;;;;;;10371867;28;19979;-83
2021/05/24 17:45:56;;;;;;;;;;;15.10;99.90;;;;;;10370403;28;19925;-83
2021/05/24 17:51:03;;;;;;;;;;;15.30;99.90;;;;;;10371646;28;19929;-83
2021/05/24 17:56:07;;;;;;;;;;;15.40;99.90;;;;;;10371802;28;20263;-83
2021/05/24 18:01:10;;;;;;;;;;;15.50;99.90;;;;;;10369879;28;20383;-83
2021/05/24 18:06:12;;;;;;;;;;;15.20;99.90;;;;;;10371582;28;19929;-84
2021/05/24 18:11:14;;;;;;;;;;;14.70;99.90;;;;;;10370806;28;19975;-83
2021/05/24 18:16:18;;;;;;;;;;;14.20;99.90;;;;;;10370276;28;20295;-83
2021/05/24 18:21:20;;;;;;;;;;;14.10;99.90;;;;;;10369442;28;19929;-83
2021/05/24 18:26:23;;;;;;;;;;;14.10;99.90;;;;;;10370992;28;19936;-84
2021/05/24 18:31:25;;;;;;;;;;;14.00;99.90;;;;;;10369946;28;20298;-83
2021/05/24 18:36:27;;;;;;;;;;;13.90;99.90;;;;;;10369619;28;19987;-83
2021/05/24 18:41:29;;;;;;;;;;;13.90;99.90;;;;;;10370135;28;19925;-84
2021/05/24 18:46:31;;;;;;;;;;;13.70;99.90;;;;;;10369498;28;19930;-84
2021/05/24 18:51:33;;;;;;;;;;;13.50;99.90;;;;;;10368232;28;19925;-82
2021/05/24 18:56:34;;;;;;;;;;;13.40;99.90;;;;;;10369555;28;19925;-82
2021/05/24 19:01:37;;;;;;;;;;;13.40;99.90;;;;;;10365921;28;19925;-83
2021/05/24 19:06:39;;;;;;;;;;;13.20;99.90;;;;;;10368102;28;20326;-83
2021/05/24 19:11:42;;;;;;;;;;;12.90;99.90;;;;;;10359142;28;20350;-83
2021/05/24 19:16:43;;;;;;;;;;;12.70;99.90;;;;;;10333132;28;19925;-83
2021/05/24 19:21:45;;;;;;;;;;;12.50;99.90;;;;;;10327304;28;19953;-82
2021/05/24 19:26:51;;;;;;;;;;;12.50;99.90;;;;;;10379589;28;20441;-82
2021/05/24 19:31:53;;;;;;;;;;;12.50;99.90;;;;;;10366545;28;20410;-81
2021/05/24 19:36:55;;;;;;;;;;;12.40;99.90;;;;;;10366058;28;19926;-81
2021/05/24 19:41:56;;;;;;;;;;;12.10;99.90;;;;;;10366189;28;19930;-81
2021/05/24 19:47:05;;;;;;;;;;;11.80;99.90;;;;;;10366199;28;20377;-81
2021/05/24 20:23:47;;;;;;;;;;;10.80;99.90;;;;;;10365429;28;19925;-81
2021/05/24 20:28:50;;;;;;;;;;;10.80;99.90;;;;;;10397787;28;19984;-81
2021/05/24 20:33:53;;;;;;;;;;;10.90;99.90;;;;;;10369813;28;19929;-81
2021/05/24 20:38:55;;;;;;;;;;;10.80;99.90;;;;;;10372895;28;19933;-81
2021/05/24 20:43:57;;;;;;;;;;;10.90;99.90;;;;;;10372933;28;19929;-82
2021/05/24 20:48:59;;;;;;;;;;;10.90;99.90;;;;;;10374185;28;19980;-84
2021/05/24 20:54:01;;;;;;;;;;;10.80;99.90;;;;;;10373986;28;20889;-84
2021/05/24 20:59:04;;;;;;;;;;;10.70;99.90;;;;;;10372564;28;19929;-83
2021/05/24 21:04:05;;;;;;;;;;;10.80;99.90;;;;;;10374657;28;19925;-83
2021/05/24 21:09:07;;;;;;;;;;;10.80;99.90;;;;;;10373800;28;19956;-83
2021/05/24 21:14:09;;;;;;;;;;;10.60;99.90;;;;;;10373032;28;19980;-84
2021/05/24 21:19:11;;;;;;;;;;;10.60;99.90;;;;;;10373399;28;19925;-84
2021/05/24 21:24:13;;;;;;;;;;;10.40;99.90;;;;;;10361028;28;20379;-84
2021/05/24 21:29:15;;;;;;;;;;;10.30;99.90;;;;;;10365833;28;19995;-84
2021/05/24 21:39:46;;;;;;;;;;;10.20;99.90;;;;;;10364182;28;20434;-84
2021/05/24 21:44:48;;;;;;;;;;;10.20;99.90;;;;;;10370902;28;19926;-83
2021/05/24 21:49:50;;;;;;;;;;;10.20;99.90;;;;;;10369784;28;19929;-83
2021/05/24 21:54:51;;;;;;;;;;;10.20;99.90;;;;;;10370388;28;19933;-83
2021/05/24 21:59:53;;;;;;;;;;;10.10;99.90;;;;;;10370777;28;19984;-83
2021/05/24 22:04:55;;;;;;;;;;;10.10;99.90;;;;;;10366053;28;19937;-83
2021/05/24 22:09:57;;;;;;;;;;;9.90;99.90;;;;;;10370201;28;19980;-83
2021/05/24 22:14:59;;;;;;;;;;;9.90;99.90;;;;;;10386755;28;20244;-83
2021/05/24 22:20:03;;;;;;;;;;;9.90;99.90;;;;;;10332122;28;19929;-83
2021/05/24 22:25:06;;;;;;;;;;;9.90;99.90;;;;;;10370102;28;19971;-83
2021/05/24 22:30:08;;;;;;;;;;;9.80;99.90;;;;;;10371156;28;20371;-83
2021/05/24 22:35:11;;;;;;;;;;;9.70;99.90;;;;;;10364845;28;19926;-83
2021/05/24 22:40:14;;;;;;;;;;;9.70;99.90;;;;;;10328841;28;19988;-84
2021/05/24 22:45:17;;;;;;;;;;;9.60;99.90;;;;;;10328500;28;19965;-83
2021/05/24 22:50:20;;;;;;;;;;;9.40;99.90;;;;;;10328769;28;19961;-83
2021/05/24 22:55:30;;;;;;;;;;;9.50;99.90;;;;;;10327599;28;19980;-83
2021/05/24 23:00:32;;;;;;;;;;;9.50;99.90;;;;;;10328717;28;19926;-83
2021/05/24 23:05:35;;;;;;;;;;;9.70;99.90;;;;;;10338795;28;19976;-83
2021/05/24 23:10:37;;;;;;;;;;;9.70;99.90;;;;;;10367876;28;19984;-84
2021/05/24 23:15:39;;;;;;;;;;;9.80;99.90;;;;;;10367911;28;19925;-83
2021/05/24 23:20:41;;;;;;;;;;;9.90;99.90;;;;;;10346046;28;20437;-83
2021/05/24 23:25:43;;;;;;;;;;;10.10;99.90;;;;;;10346789;28;19969;-83
2021/05/24 23:30:45;;;;;;;;;;;10.10;99.90;;;;;;10378581;28;19925;-83
2021/05/24 23:35:47;;;;;;;;;;;9.80;99.90;;;;;;10367267;28;19929;-83
2021/05/24 23:40:50;;;;;;;;;;;9.80;99.90;;;;;;10353370;28;19926;-83
2021/05/24 23:45:52;;;;;;;;;;;9.90;99.90;;;;;;10335643;28;19933;-83
2021/05/24 23:50:54;;;;;;;;;;;10.00;99.90;;;;;;10366441;28;19925;-83
2021/05/24 23:55:56;;;;;;;;;;;10.10;99.90;;;;;;10367902;28;19925;-84
